Terminal Aerodrome Forecast
Issued by NWS

Home | Current Version | Previous Version | Text Only | Print | Product List | Glossary On
Versions: 1 2 3 4 5 6 7 8 9 10 11 12 13 14 15
855
FTUS43 KLSX 141744
TAFUIN
TAF
KUIN 141744Z 1418/1518 20014G20KT P6SM VCTS BKN050CB
     FM150300 21012G22KT 3SM TSRA OVC040CB WS020/21045KT
     FM150600 27014G21KT 5SM -SHRA OVC020
     FM150900 29017G28KT P6SM OVC015
     FM151500 32018G26KT P6SM BKN035=

USA.gov is the U.S. government's official web portal to all federal, state and local government web resources and services.